Rock Island, WA

10:09 PM PDT on September 03, 2015 (GMT -0700)
East Wenatchee North Nile | | Change Station
CLOSE
Current Station
Personal Weather Station
Location: East Wenatchee, WA
Elevation: 1184 ft
Nearby Weather Stations

Elev 1184 ft 47.41 °N, 120.24 °W | Updated 1 minute ago

Clear
Clear
56.7 °F
Feels Like 56.7 °F
N
6.0
Wind Variable Wind from WNW
Gusts 7.4 mph

Today
High -- | Low -- °F
--% Chance of Precip.
Yesterday
High -- | Low -- °F
Precip. -- in
6:21 AM 7:37 PM
Waning Gibbous, 63% visible
Pressure 29.91 in
Visibility 10.0 miles
Clouds Clear
Dew Point 39 °F
Humidity 51%
Rainfall 0.00 in
Snow Depth Not available.
UV 0.0 out of 12
Pollen 3.80 out of 12
Air Quality Not available.
Flu Activity Not available.
METAR KEAT 040455Z AUTO 32009KT 10SM CLR 15/02 A2992 RMK AO2 SLP129 T01500017
Pressure 29.91 in
Visibility 10.0 miles
Clouds Clear
Dew Point 39 °F
Humidity 51%
Rainfall 0.00 in
Snow Depth Not available.
UV 0.0 out of 12
Pollen 3.80 out of 12
Air Quality Not available.
Flu Activity Not available.
METAR KEAT 040455Z AUTO 32009KT 10SM CLR 15/02 A2992 RMK AO2 SLP129 T01500017

10-Day Weather Forecast

×

Almanac

Astronomy

Sep. 03, 2015 Rise Set
Actual Time
Civil Twilight
Nautical Twilight
Astronomical Twilight
Moon
Length of Visible Light
Length of Day
Tomorrow will be .
, % of the Moon is Illuminated

Today's Extremes

State Highs State Lows

Community

WunderPhotos

Upload Photos

1,852,129 photos uploaded!

WunderBlogs® & News

Nearby

Air Quality

  Air Quality AQ Index Pollutant
Not available.

Snow Depth

Station Depth Elevation

Earthquake Activity

City Distance Mag. Time & Date
Minimum magnitude displayed is 2.5.

Coastal Water Temperatures

Place Temperature

Stations

Nearby Weather Stations

Station Location Temp. Windchill Dew Point Humidity Wind Precip. Elev Updated Type